Time;durP1;ratioP1;P1;durP2;ratioP2;P2;SDS_P1;SDS_P2;PMS_P1;PMS_P2;Temp;Humidity;BMP_temperature;BMP_pressure;BME280_temperature;BME280_humidity;BME280_pressure;Samples;Min_cycle;Max_cycle;Signal;HPM_P1;HPM_P2
2023/03/19 00:00:56;;;;;;;2.83;1.20;;;;;;;;;;4981881;28;88867;-62
2023/03/19 00:03:25;;;;;;;1.53;0.70;;;;;;;;;;4982340;28;87091;-62
2023/03/19 00:05:53;;;;;;;2.47;1.00;;;;;;;;;;4983192;28;87037;-62
2023/03/19 00:08:22;;;;;;;1.60;1.03;;;;;;;;;;4981969;28;88956;-62
2023/03/19 00:10:51;;;;;;;0.60;0.60;;;;;;;;;;4982518;28;88822;-61
2023/03/19 00:13:20;;;;;;;1.30;0.97;;;;;;;;;;4982138;28;87081;-62
2023/03/19 00:15:49;;;;;;;0.50;0.50;;;;;;;;;;4982137;28;86881;-62
2023/03/19 00:18:18;;;;;;;0.93;0.83;;;;;;;;;;4981177;28;88967;-62
2023/03/19 00:20:46;;;;;;;1.83;0.80;;;;;;;;;;4982085;28;90254;-62
2023/03/19 00:23:15;;;;;;;0.90;0.80;;;;;;;;;;4981859;28;87063;-62
2023/03/19 00:25:43;;;;;;;0.90;0.70;;;;;;;;;;4982502;28;87065;-62
2023/03/19 00:28:13;;;;;;;0.80;0.80;;;;;;;;;;4981400;28;87725;-62
2023/03/19 00:30:43;;;;;;;1.10;0.90;;;;;;;;;;4980045;28;88696;-62
2023/03/19 00:33:12;;;;;;;0.83;0.73;;;;;;;;;;4981877;28;86923;-62
2023/03/19 00:35:40;;;;;;;1.17;1.07;;;;;;;;;;4982187;28;86306;-61
2023/03/19 00:38:08;;;;;;;0.93;0.73;;;;;;;;;;4981012;28;89304;-61
2023/03/19 00:40:37;;;;;;;2.20;1.00;;;;;;;;;;4981602;28;88985;-62
2023/03/19 00:43:06;;;;;;;1.30;0.93;;;;;;;;;;4981269;28;88010;-62
2023/03/19 00:45:35;;;;;;;0.87;0.70;;;;;;;;;;4980889;28;87132;-62
2023/03/19 00:48:04;;;;;;;0.80;0.77;;;;;;;;;;4981139;28;89224;-62
2023/03/19 00:50:32;;;;;;;0.83;0.70;;;;;;;;;;4981073;28;88721;-62
2023/03/19 00:53:01;;;;;;;1.07;0.73;;;;;;;;;;4981479;28;86933;-62
2023/03/19 00:55:30;;;;;;;0.97;0.77;;;;;;;;;;4981824;28;86752;-61
2023/03/19 00:57:58;;;;;;;0.83;0.67;;;;;;;;;;4970709;28;89283;-62
2023/03/19 01:00:27;;;;;;;0.60;0.60;;;;;;;;;;4982008;28;87496;-62
2023/03/19 01:02:56;;;;;;;1.80;1.07;;;;;;;;;;4981457;28;87026;-62
2023/03/19 01:05:25;;;;;;;1.10;0.70;;;;;;;;;;4982426;28;87141;-62
2023/03/19 01:07:53;;;;;;;1.97;1.27;;;;;;;;;;4983262;28;88908;-62
2023/03/19 01:10:22;;;;;;;0.70;0.60;;;;;;;;;;4984468;28;88721;-62
2023/03/19 01:12:50;;;;;;;0.87;0.60;;;;;;;;;;4984844;28;87126;-62
2023/03/19 01:15:19;;;;;;;1.30;0.90;;;;;;;;;;4984880;28;86939;-62
2023/03/19 01:17:47;;;;;;;1.13;0.80;;;;;;;;;;4984188;28;87585;-62
2023/03/19 01:20:17;;;;;;;0.93;0.60;;;;;;;;;;4977561;28;88891;-62
2023/03/19 01:22:46;;;;;;;0.60;0.60;;;;;;;;;;4984962;28;86906;-62
2023/03/19 01:25:14;;;;;;;2.40;0.90;;;;;;;;;;4985231;28;86270;-62
2023/03/19 01:27:42;;;;;;;0.53;0.53;;;;;;;;;;4984861;28;87882;-62
2023/03/19 01:30:11;;;;;;;1.30;0.87;;;;;;;;;;4984103;28;88980;-62
2023/03/19 01:32:40;;;;;;;1.23;1.13;;;;;;;;;;4984131;28;87888;-62
2023/03/19 01:35:10;;;;;;;1.80;0.70;;;;;;;;;;4984265;28;87044;-62
2023/03/19 01:37:40;;;;;;;0.60;0.50;;;;;;;;;;4984022;28;88245;-62
2023/03/19 01:40:09;;;;;;;1.43;0.77;;;;;;;;;;4984063;28;87842;-62
2023/03/19 01:42:51;;;;;;;0.77;0.77;;;;;;;;;;4983879;28;87037;-62
2023/03/19 01:45:32;;;;;;;0.67;0.50;;;;;;;;;;4971969;28;87059;-62
2023/03/19 01:48:00;;;;;;;1.13;0.50;;;;;;;;;;4984240;28;88078;-62
2023/03/19 01:50:30;;;;;;;1.10;0.83;;;;;;;;;;4984549;28;88814;-62
2023/03/19 01:53:00;;;;;;;0.83;0.60;;;;;;;;;;4984305;28;87115;-62
2023/03/19 01:55:29;;;;;;;1.77;0.60;;;;;;;;;;4984658;28;87065;-62
2023/03/19 01:57:58;;;;;;;1.20;0.87;;;;;;;;;;4983933;28;87876;-63
2023/03/19 02:00:27;;;;;;;0.60;0.60;;;;;;;;;;4983537;28;89834;-62
2023/03/19 02:02:56;;;;;;;0.63;0.63;;;;;;;;;;4983881;28;86971;-62
2023/03/19 02:05:25;;;;;;;0.60;0.60;;;;;;;;;;4982821;28;86992;-62
2023/03/19 02:07:53;;;;;;;0.57;0.50;;;;;;;;;;4981177;28;89122;-62
2023/03/19 02:10:23;;;;;;;0.90;0.90;;;;;;;;;;4963928;28;90922;-62
2023/03/19 02:12:53;;;;;;;0.60;0.60;;;;;;;;;;4969455;28;89070;-62
2023/03/19 02:15:21;;;;;;;0.50;0.50;;;;;;;;;;4981183;28;86651;-62
2023/03/19 02:17:50;;;;;;;0.50;0.50;;;;;;;;;;4977328;28;88256;-62
2023/03/19 02:20:19;;;;;;;0.50;0.50;;;;;;;;;;4980981;28;87741;-62
2023/03/19 02:22:49;;;;;;;0.87;0.63;;;;;;;;;;4980309;28;87983;-62
2023/03/19 02:25:20;;;;;;;2.50;0.87;;;;;;;;;;4980390;28;88025;-62
2023/03/19 02:27:49;;;;;;;0.70;0.70;;;;;;;;;;4981912;28;88019;-62
2023/03/19 02:30:20;;;;;;;0.50;0.50;;;;;;;;;;4979896;28;88749;-62
2023/03/19 02:32:48;;;;;;;0.53;0.53;;;;;;;;;;4981437;28;87198;-62
2023/03/19 02:35:17;;;;;;;0.50;0.50;;;;;;;;;;4981519;28;87066;-62
2023/03/19 02:37:45;;;;;;;0.93;0.80;;;;;;;;;;4963404;28;88044;-62
2023/03/19 02:40:14;;;;;;;0.60;0.60;;;;;;;;;;4973879;28;86454;-62
2023/03/19 02:42:42;;;;;;;1.07;0.83;;;;;;;;;;4982179;28;87032;-62
2023/03/19 02:45:12;;;;;;;0.77;0.63;;;;;;;;;;4981143;28;87115;-62
2023/03/19 02:47:40;;;;;;;0.50;0.43;;;;;;;;;;4981020;28;91032;-62
2023/03/19 02:50:09;;;;;;;0.50;0.50;;;;;;;;;;4981224;28;89942;-62
2023/03/19 02:52:40;;;;;;;0.70;0.70;;;;;;;;;;4981055;28;88531;-62
2023/03/19 02:55:10;;;;;;;0.80;0.57;;;;;;;;;;4981243;28;87196;-62
2023/03/19 02:57:38;;;;;;;1.30;1.10;;;;;;;;;;4981166;28;88023;-62
2023/03/19 03:00:07;;;;;;;1.40;0.97;;;;;;;;;;4957813;28;88983;-62
2023/03/19 03:02:37;;;;;;;0.77;0.70;;;;;;;;;;4973603;28;86972;-63
2023/03/19 03:05:06;;;;;;;1.33;0.70;;;;;;;;;;4981331;28;88513;-62
2023/03/19 03:07:34;;;;;;;1.17;0.70;;;;;;;;;;4977314;28;87607;-62
2023/03/19 03:10:03;;;;;;;1.80;0.77;;;;;;;;;;4980989;28;87436;-62
2023/03/19 03:12:31;;;;;;;0.83;0.77;;;;;;;;;;4980966;28;87980;-62
2023/03/19 03:15:00;;;;;;;1.63;0.83;;;;;;;;;;4981003;28;87020;-62
2023/03/19 03:17:28;;;;;;;1.90;1.03;;;;;;;;;;4978070;28;90646;-62
2023/03/19 03:19:58;;;;;;;1.23;1.00;;;;;;;;;;4970910;28;88567;-63
2023/03/19 03:22:26;;;;;;;1.23;1.13;;;;;;;;;;4980302;28;87003;-62
2023/03/19 03:24:59;;;;;;;1.30;1.20;;;;;;;;;;4981082;28;86957;-62
2023/03/19 03:27:27;;;;;;;1.03;0.93;;;;;;;;;;4981063;28;88526;-62
2023/03/19 03:29:55;;;;;;;3.93;1.10;;;;;;;;;;4979943;28;88859;-62
2023/03/19 03:32:24;;;;;;;0.70;0.70;;;;;;;;;;4981202;28;87220;-62
2023/03/19 03:34:52;;;;;;;0.90;0.90;;;;;;;;;;4980306;28;87511;-62
2023/03/19 03:37:24;;;;;;;1.00;0.87;;;;;;;;;;4980303;28;90034;-62
2023/03/19 03:39:53;;;;;;;1.57;1.27;;;;;;;;;;4980658;28;90073;-62
2023/03/19 03:42:23;;;;;;;0.90;0.80;;;;;;;;;;4981301;28;87120;-62
2023/03/19 03:44:51;;;;;;;1.20;1.00;;;;;;;;;;4981245;28;87012;-62
2023/03/19 03:47:19;;;;;;;2.43;0.73;;;;;;;;;;4978452;28;89253;-62
2023/03/19 03:49:47;;;;;;;1.20;1.10;;;;;;;;;;4980737;28;88827;-62
2023/03/19 03:52:16;;;;;;;3.70;1.00;;;;;;;;;;4981120;28;87070;-62
2023/03/19 03:54:46;;;;;;;0.97;0.73;;;;;;;;;;4980854;28;86423;-62
2023/03/19 03:57:14;;;;;;;0.80;0.80;;;;;;;;;;4980905;28;87978;-62
2023/03/19 03:59:43;;;;;;;0.70;0.70;;;;;;;;;;4976313;28;88708;-63
2023/03/19 04:02:11;;;;;;;0.83;0.83;;;;;;;;;;4979197;28;88164;-62
2023/03/19 04:04:40;;;;;;;1.40;1.07;;;;;;;;;;4980320;28;87089;-62
2023/03/19 04:07:11;;;;;;;1.10;1.00;;;;;;;;;;4975937;28;88512;-62
2023/03/19 04:09:39;;;;;;;1.83;1.50;;;;;;;;;;4980825;28;87737;-62
2023/03/19 04:12:10;;;;;;;1.47;1.10;;;;;;;;;;4971644;28;87116;-62
2023/03/19 04:14:43;;;;;;;1.43;1.03;;;;;;;;;;4979460;28;87043;-62
2023/03/19 04:17:11;;;;;;;2.33;1.23;;;;;;;;;;4979340;28;89036;-62
2023/03/19 04:19:42;;;;;;;2.97;1.10;;;;;;;;;;4980741;28;87653;-62
2023/03/19 04:22:10;;;;;;;1.17;0.90;;;;;;;;;;4980071;28;87065;-62
2023/03/19 04:24:38;;;;;;;2.33;1.07;;;;;;;;;;4975683;28;87043;-62
2023/03/19 04:27:08;;;;;;;1.90;1.10;;;;;;;;;;4966941;28;90124;-62
2023/03/19 04:29:37;;;;;;;1.63;0.80;;;;;;;;;;4980044;28;89591;-62
2023/03/19 04:32:05;;;;;;;1.27;1.17;;;;;;;;;;4980125;28;86854;-62
2023/03/19 04:34:34;;;;;;;1.50;1.00;;;;;;;;;;4980228;28;86970;-62
2023/03/19 04:37:03;;;;;;;1.97;1.43;;;;;;;;;;4980605;28;87882;-63
2023/03/19 04:39:32;;;;;;;1.77;1.40;;;;;;;;;;4976366;28;87983;-62
2023/03/19 04:42:00;;;;;;;1.17;0.87;;;;;;;;;;4980035;28;87090;-62
2023/03/19 04:44:30;;;;;;;1.43;0.97;;;;;;;;;;4980205;28;86442;-62
2023/03/19 04:46:59;;;;;;;1.43;1.33;;;;;;;;;;4977666;28;88023;-62
2023/03/19 04:49:27;;;;;;;1.10;1.00;;;;;;;;;;4979835;28;88412;-62
2023/03/19 04:51:56;;;;;;;1.90;1.63;;;;;;;;;;4978945;28;88031;-63
2023/03/19 04:54:24;;;;;;;1.47;1.37;;;;;;;;;;4979876;28;87095;-62
2023/03/19 04:56:53;;;;;;;0.97;0.90;;;;;;;;;;4980237;28;88126;-62
2023/03/19 04:59:22;;;;;;;1.23;1.13;;;;;;;;;;4979977;28;88754;-62
2023/03/19 05:01:51;;;;;;;1.33;1.10;;;;;;;;;;4979455;28;87231;-62
2023/03/19 05:04:20;;;;;;;2.40;1.43;;;;;;;;;;4975934;28;87189;-62
2023/03/19 05:06:49;;;;;;;1.47;1.37;;;;;;;;;;4976567;28;88946;-62
2023/03/19 05:09:17;;;;;;;1.00;1.00;;;;;;;;;;4980479;28;88940;-62
2023/03/19 05:11:45;;;;;;;1.03;0.80;;;;;;;;;;4980125;28;87165;-63
2023/03/19 05:14:14;;;;;;;1.70;1.23;;;;;;;;;;4979689;28;87014;-63
2023/03/19 05:16:42;;;;;;;1.60;1.20;;;;;;;;;;4975700;28;91095;-62
2023/03/19 05:19:12;;;;;;;1.90;0.90;;;;;;;;;;4979646;28;88700;-62
2023/03/19 05:21:41;;;;;;;1.37;1.20;;;;;;;;;;4976717;28;87409;-62
2023/03/19 05:24:10;;;;;;;1.63;1.10;;;;;;;;;;4979625;28;87083;-62
2023/03/19 05:26:38;;;;;;;1.60;1.37;;;;;;;;;;4978057;28;88467;-63
2023/03/19 05:29:09;;;;;;;2.87;1.33;;;;;;;;;;4979361;28;88687;-62
2023/03/19 05:31:38;;;;;;;1.73;1.63;;;;;;;;;;4965950;28;87027;-63
2023/03/19 05:34:06;;;;;;;1.63;1.07;;;;;;;;;;4977993;28;86416;-61
2023/03/19 05:36:38;;;;;;;2.90;1.30;;;;;;;;;;4980178;28;87046;-53
2023/03/19 05:39:07;;;;;;;1.67;0.93;;;;;;;;;;4971586;28;87697;-54
2023/03/19 05:41:35;;;;;;;2.67;1.67;;;;;;;;;;4979995;28;88115;-54
2023/03/19 05:44:03;;;;;;;1.77;1.67;;;;;;;;;;4977998;28;87119;-53
2023/03/19 05:46:32;;;;;;;1.33;1.20;;;;;;;;;;4960588;28;89557;-53
2023/03/19 05:49:00;;;;;;;0.77;0.77;;;;;;;;;;4962250;28;87960;-53
2023/03/19 05:51:28;;;;;;;0.80;0.80;;;;;;;;;;4978447;28;87083;-54
2023/03/19 05:53:58;;;;;;;1.00;0.93;;;;;;;;;;4980490;28;87902;-54
2023/03/19 05:56:27;;;;;;;1.50;1.10;;;;;;;;;;4981610;28;88185;-53
2023/03/19 05:58:55;;;;;;;1.03;0.90;;;;;;;;;;4981069;28;86372;-54
2023/03/19 06:01:23;;;;;;;2.07;0.80;;;;;;;;;;4982710;28;87033;-53
2023/03/19 06:03:52;;;;;;;0.77;0.77;;;;;;;;;;4982413;28;87024;-54
2023/03/19 06:06:21;;;;;;;1.47;1.17;;;;;;;;;;4981537;28;89062;-53
2023/03/19 06:08:49;;;;;;;0.80;0.77;;;;;;;;;;4982255;28;87519;-54
2023/03/19 06:11:19;;;;;;;1.13;0.80;;;;;;;;;;4982321;28;87195;-54
2023/03/19 06:13:47;;;;;;;0.70;0.70;;;;;;;;;;4982260;28;87060;-54
2023/03/19 06:16:16;;;;;;;2.47;1.33;;;;;;;;;;4974124;28;89153;-53
2023/03/19 06:18:45;;;;;;;1.00;0.90;;;;;;;;;;4982562;28;87045;-54
2023/03/19 06:21:14;;;;;;;1.43;1.00;;;;;;;;;;4982935;28;87224;-53
2023/03/19 06:23:45;;;;;;;1.83;1.23;;;;;;;;;;4982039;28;86220;-54
2023/03/19 06:26:14;;;;;;;3.33;1.23;;;;;;;;;;4981077;28;88932;-54
2023/03/19 06:28:43;;;;;;;1.60;1.43;;;;;;;;;;4982441;28;87835;-53
2023/03/19 06:31:12;;;;;;;1.90;1.10;;;;;;;;;;4981949;28;88415;-54
2023/03/19 06:33:40;;;;;;;1.30;1.20;;;;;;;;;;4981602;28;87576;-59
2023/03/19 06:36:09;;;;;;;1.70;1.60;;;;;;;;;;4981946;28;89162;-59
2023/03/19 06:38:37;;;;;;;1.93;1.57;;;;;;;;;;4982351;28;87002;-58
2023/03/19 06:41:05;;;;;;;2.00;1.30;;;;;;;;;;4981617;28;88307;-59
2023/03/19 06:43:35;;;;;;;2.27;1.43;;;;;;;;;;4981538;28;87386;-59
2023/03/19 06:46:07;;;;;;;1.73;1.10;;;;;;;;;;4981183;28;88946;-58
2023/03/19 06:48:38;;;;;;;1.03;0.73;;;;;;;;;;4981874;28;87755;-58
2023/03/19 06:51:07;;;;;;;1.27;1.17;;;;;;;;;;4969271;28;88657;-58
2023/03/19 06:53:35;;;;;;;1.83;1.27;;;;;;;;;;4981069;28;87200;-58
2023/03/19 06:56:03;;;;;;;1.00;0.73;;;;;;;;;;4972741;28;89145;-58
2023/03/19 06:58:31;;;;;;;3.23;1.03;;;;;;;;;;4981530;28;88680;-59
2023/03/19 07:01:01;;;;;;;1.97;1.40;;;;;;;;;;4980024;28;87028;-59
2023/03/19 07:03:31;;;;;;;1.03;0.93;;;;;;;;;;4981351;28;87106;-58
2023/03/19 07:05:59;;;;;;;2.27;1.27;;;;;;;;;;4981198;28;87952;-58
2023/03/19 07:08:29;;;;;;;2.00;1.07;;;;;;;;;;4981396;28;87943;-58
2023/03/19 07:10:57;;;;;;;1.50;1.40;;;;;;;;;;4981463;28;87099;-58
2023/03/19 07:13:25;;;;;;;1.00;0.80;;;;;;;;;;4983080;28;86325;-58
2023/03/19 07:15:54;;;;;;;2.33;1.50;;;;;;;;;;4980686;28;88104;-58
2023/03/19 07:18:22;;;;;;;1.13;1.00;;;;;;;;;;4981257;28;88928;-58
2023/03/19 07:20:52;;;;;;;1.20;1.10;;;;;;;;;;4981662;28;88083;-58
2023/03/19 07:23:21;;;;;;;1.50;1.13;;;;;;;;;;4982800;28;87393;-58
2023/03/19 07:25:49;;;;;;;1.00;0.90;;;;;;;;;;4981836;28;89149;-58
2023/03/19 07:28:18;;;;;;;1.13;0.90;;;;;;;;;;4982807;28;87150;-58
2023/03/19 07:30:46;;;;;;;1.50;1.00;;;;;;;;;;4981880;28;86882;-57
2023/03/19 07:33:15;;;;;;;1.63;1.20;;;;;;;;;;4982498;28;87052;-58
2023/03/19 07:35:44;;;;;;;1.43;1.10;;;;;;;;;;4982144;28;88204;-58
2023/03/19 07:38:14;;;;;;;4.87;1.10;;;;;;;;;;4982843;28;88969;-59
2023/03/19 07:40:42;;;;;;;1.30;1.10;;;;;;;;;;4982406;28;87070;-58
2023/03/19 07:43:28;;;;;;;1.63;1.10;;;;;;;;;;4982115;28;87123;-58
2023/03/19 07:45:57;;;;;;;4.47;1.67;;;;;;;;;;4981197;28;89105;-58
2023/03/19 07:48:28;;;;;;;2.23;1.07;;;;;;;;;;4981989;28;88492;-58
2023/03/19 07:50:56;;;;;;;2.03;1.10;;;;;;;;;;4982021;28;87403;-58
2023/03/19 07:53:26;;;;;;;1.57;0.90;;;;;;;;;;4982389;28;86941;-58
2023/03/19 07:55:54;;;;;;;1.33;1.20;;;;;;;;;;4982011;28;88063;-58
2023/03/19 07:58:23;;;;;;;2.30;1.90;;;;;;;;;;4981616;28;87917;-58
2023/03/19 08:00:52;;;;;;;2.07;1.40;;;;;;;;;;4980145;28;87255;-58
2023/03/19 08:03:21;;;;;;;1.30;1.00;;;;;;;;;;4980551;28;86303;-58
2023/03/19 08:05:50;;;;;;;1.57;1.10;;;;;;;;;;4981583;28;89112;-58
2023/03/19 08:08:18;;;;;;;2.50;1.30;;;;;;;;;;4982156;28;87590;-58
2023/03/19 08:10:49;;;;;;;1.27;1.17;;;;;;;;;;4981901;28;88149;-58
2023/03/19 08:13:17;;;;;;;1.80;1.30;;;;;;;;;;4981516;28;87125;-58
2023/03/19 08:15:47;;;;;;;1.90;1.33;;;;;;;;;;4977843;28;88137;-58
2023/03/19 08:18:15;;;;;;;1.97;1.23;;;;;;;;;;4960417;28;88877;-58
2023/03/19 08:20:44;;;;;;;1.53;1.10;;;;;;;;;;4962856;28;87034;-59
2023/03/19 08:23:13;;;;;;;7.93;1.50;;;;;;;;;;4961328;28;86828;-59
2023/03/19 08:25:41;;;;;;;3.13;1.40;;;;;;;;;;4960946;28;88186;-59
2023/03/19 08:28:13;;;;;;;2.60;1.70;;;;;;;;;;4962063;28;87894;-59
2023/03/19 08:30:41;;;;;;;1.37;1.10;;;;;;;;;;4962424;28;86879;-59
2023/03/19 08:33:10;;;;;;;1.57;1.40;;;;;;;;;;4962544;28;87108;-59
2023/03/19 08:35:38;;;;;;;1.87;1.50;;;;;;;;;;4962094;28;90125;-59
2023/03/19 08:38:07;;;;;;;2.20;1.43;;;;;;;;;;4961171;28;89924;-59
2023/03/19 08:40:35;;;;;;;2.17;1.23;;;;;;;;;;4949541;28;87100;-58
2023/03/19 08:43:04;;;;;;;1.23;1.13;;;;;;;;;;4962615;28;87024;-58
2023/03/19 08:45:33;;;;;;;3.67;1.93;;;;;;;;;;4961806;28;88280;-60
2023/03/19 08:48:02;;;;;;;1.87;1.70;;;;;;;;;;4961833;28;88976;-57
2023/03/19 08:50:31;;;;;;;3.83;1.50;;;;;;;;;;4961952;28;87143;-58
2023/03/19 08:53:00;;;;;;;2.43;1.70;;;;;;;;;;4962226;28;86370;-57
2023/03/19 08:55:28;;;;;;;5.43;1.33;;;;;;;;;;4961858;28;88123;-58
2023/03/19 08:57:56;;;;;;;2.63;1.40;;;;;;;;;;4961110;28;89010;-58
2023/03/19 09:00:26;;;;;;;4.00;1.93;;;;;;;;;;4961525;28;88654;-58
2023/03/19 09:02:56;;;;;;;2.37;1.87;;;;;;;;;;4962243;28;87034;-58
2023/03/19 09:05:24;;;;;;;1.57;1.23;;;;;;;;;;4961928;28;88264;-58
2023/03/19 09:07:54;;;;;;;1.87;1.23;;;;;;;;;;4962083;28;88970;-59
2023/03/19 09:10:22;;;;;;;2.40;1.57;;;;;;;;;;4961572;28;87051;-58
2023/03/19 09:12:50;;;;;;;2.20;1.47;;;;;;;;;;4961746;28;87078;-59
2023/03/19 09:15:19;;;;;;;3.07;1.70;;;;;;;;;;4965780;28;89221;-58
2023/03/19 09:17:47;;;;;;;1.80;1.33;;;;;;;;;;4994703;28;87541;-58
2023/03/19 09:20:17;;;;;;;3.30;2.13;;;;;;;;;;5001301;28;86933;-58
2023/03/19 09:22:46;;;;;;;3.07;1.80;;;;;;;;;;5001542;28;87169;-61
2023/03/19 09:25:16;;;;;;;2.80;1.33;;;;;;;;;;4981073;28;89236;-59
2023/03/19 09:27:44;;;;;;;1.63;1.33;;;;;;;;;;4983473;28;89951;-57
2023/03/19 09:30:13;;;;;;;2.60;1.43;;;;;;;;;;4982808;28;87180;-58
2023/03/19 09:32:41;;;;;;;3.37;1.50;;;;;;;;;;4983914;28;87447;-58
2023/03/19 09:35:11;;;;;;;2.93;2.13;;;;;;;;;;4983915;28;89250;-58
2023/03/19 09:37:40;;;;;;;5.17;2.33;;;;;;;;;;4983873;28;88018;-59
2023/03/19 09:40:16;;;;;;;4.07;2.07;;;;;;;;;;4984867;28;88098;-58
2023/03/19 09:42:46;;;;;;;3.23;1.67;;;;;;;;;;4984976;28;86319;-58
2023/03/19 09:45:17;;;;;;;2.90;1.73;;;;;;;;;;4984394;28;88765;-58
2023/03/19 09:47:45;;;;;;;3.13;2.10;;;;;;;;;;4984561;28;87775;-58
2023/03/19 09:50:14;;;;;;;2.83;1.80;;;;;;;;;;4984136;28;87746;-58
2023/03/19 09:52:45;;;;;;;3.93;1.73;;;;;;;;;;4984601;28;87013;-58
2023/03/19 09:55:16;;;;;;;1.70;0.97;;;;;;;;;;4984187;28;88426;-58
2023/03/19 09:57:53;;;;;;;3.10;1.60;;;;;;;;;;4984197;28;87764;-58
2023/03/19 10:00:24;;;;;;;3.17;1.83;;;;;;;;;;4983877;28;86881;-58
2023/03/19 10:02:54;;;;;;;2.13;1.60;;;;;;;;;;4983954;28;87088;-58
2023/03/19 10:05:24;;;;;;;3.30;1.97;;;;;;;;;;4984165;28;89048;-59
2023/03/19 10:08:13;;;;;;;4.93;2.07;;;;;;;;;;4984312;28;87896;-59
2023/03/19 10:10:52;;;;;;;3.53;2.03;;;;;;;;;;4984379;28;87036;-58
2023/03/19 10:13:27;;;;;;;2.67;1.67;;;;;;;;;;4984222;28;86995;-58
2023/03/19 10:15:55;;;;;;;2.53;1.60;;;;;;;;;;4983807;28;90079;-58
2023/03/19 10:18:25;;;;;;;2.73;1.37;;;;;;;;;;4983824;28;88629;-58
2023/03/19 10:20:55;;;;;;;4.10;2.27;;;;;;;;;;4984015;28;87040;-58
2023/03/19 10:23:32;;;;;;;5.80;1.63;;;;;;;;;;4984157;28;87015;-58
2023/03/19 10:26:00;;;;;;;3.40;1.80;;;;;;;;;;4983745;28;89150;-58
2023/03/19 10:28:29;;;;;;;2.23;1.47;;;;;;;;;;4984243;28;87805;-58
2023/03/19 10:31:00;;;;;;;3.03;2.30;;;;;;;;;;4975895;28;87063;-58
2023/03/19 10:33:33;;;;;;;2.90;2.00;;;;;;;;;;4984107;28;86357;-58
2023/03/19 10:36:02;;;;;;;2.97;1.80;;;;;;;;;;4983814;28;88187;-59
2023/03/19 10:38:33;;;;;;;3.57;1.27;;;;;;;;;;4982896;28;89440;-58
2023/03/19 10:41:04;;;;;;;2.73;1.63;;;;;;;;;;4983673;28;88003;-58
2023/03/19 10:43:33;;;;;;;2.77;2.10;;;;;;;;;;4983641;28;87043;-58
2023/03/19 10:46:02;;;;;;;2.90;1.50;;;;;;;;;;4983290;28;88360;-58
2023/03/19 10:48:32;;;;;;;4.23;1.50;;;;;;;;;;4983459;28;88952;-58
2023/03/19 10:51:07;;;;;;;2.93;1.87;;;;;;;;;;4983718;28;87094;-58
2023/03/19 10:53:37;;;;;;;3.30;1.70;;;;;;;;;;4983710;28;86751;-58
2023/03/19 10:56:06;;;;;;;5.30;2.20;;;;;;;;;;4983320;28;88158;-58
2023/03/19 10:58:35;;;;;;;2.83;1.70;;;;;;;;;;4983313;28;89065;-58
2023/03/19 11:01:05;;;;;;;3.30;1.63;;;;;;;;;;4983296;28;87017;-58
2023/03/19 11:03:35;;;;;;;2.83;1.60;;;;;;;;;;4983482;28;87038;-58
2023/03/19 11:06:04;;;;;;;3.03;2.33;;;;;;;;;;4982437;28;90209;-58
2023/03/19 11:08:35;;;;;;;2.13;1.37;;;;;;;;;;4982648;28;90045;-59
2023/03/19 11:11:05;;;;;;;3.80;1.40;;;;;;;;;;4982920;28;87060;-59
2023/03/19 11:13:34;;;;;;;1.93;1.47;;;;;;;;;;4982693;28;87086;-58
2023/03/19 11:16:03;;;;;;;3.03;1.63;;;;;;;;;;4983288;28;89034;-59
2023/03/19 11:18:33;;;;;;;3.97;1.83;;;;;;;;;;4982369;28;87651;-59
2023/03/19 11:21:01;;;;;;;3.53;2.10;;;;;;;;;;4983264;28;86930;-58
2023/03/19 11:23:30;;;;;;;3.13;1.57;;;;;;;;;;4983146;28;86351;-58
2023/03/19 11:26:01;;;;;;;2.07;1.70;;;;;;;;;;4982668;28;89272;-58
2023/03/19 11:28:32;;;;;;;4.17;1.80;;;;;;;;;;4982411;28;87043;-58
2023/03/19 11:31:03;;;;;;;2.97;1.57;;;;;;;;;;4982758;28;87976;-58
2023/03/19 11:33:49;;;;;;;3.70;1.43;;;;;;;;;;4982862;28;87059;-58
2023/03/19 11:36:18;;;;;;;2.33;1.87;;;;;;;;;;4982654;28;88254;-58
2023/03/19 11:39:03;;;;;;;2.73;1.70;;;;;;;;;;4982458;28;88909;-59
2023/03/19 11:41:37;;;;;;;2.73;1.80;;;;;;;;;;4982742;28;87100;-58
2023/03/19 11:44:07;;;;;;;1.17;1.07;;;;;;;;;;4982877;28;86960;-58
2023/03/19 11:46:37;;;;;;;2.57;1.20;;;;;;;;;;4982259;28;89155;-58
2023/03/19 11:49:14;;;;;;;3.40;1.83;;;;;;;;;;4982347;28;89061;-58
2023/03/19 11:51:43;;;;;;;2.37;2.03;;;;;;;;;;4981874;28;87044;-59
2023/03/19 11:54:14;;;;;;;1.30;1.13;;;;;;;;;;4982442;28;87059;-58
2023/03/19 11:56:42;;;;;;;3.87;1.27;;;;;;;;;;4982254;28;87938;-58
2023/03/19 11:59:18;;;;;;;3.53;1.80;;;;;;;;;;4982308;28;88953;-58
2023/03/19 12:01:56;;;;;;;3.00;1.33;;;;;;;;;;4982313;28;87043;-58
2023/03/19 12:04:34;;;;;;;1.87;1.37;;;;;;;;;;4982273;28;86958;-58
2023/03/19 12:07:03;;;;;;;2.70;1.60;;;;;;;;;;4981583;28;89090;-58
2023/03/19 12:09:35;;;;;;;1.80;1.33;;;;;;;;;;4981915;28;87579;-58
2023/03/19 12:12:05;;;;;;;3.93;2.03;;;;;;;;;;4982570;28;86768;-58
2023/03/19 12:14:41;;;;;;;1.70;1.30;;;;;;;;;;4982904;28;86939;-59
2023/03/19 12:17:18;;;;;;;1.73;1.50;;;;;;;;;;4981564;28;89230;-59
2023/03/19 12:19:50;;;;;;;2.27;1.47;;;;;;;;;;4981701;28;88866;-58
2023/03/19 12:22:20;;;;;;;1.93;1.53;;;;;;;;;;4981111;28;88002;-58
2023/03/19 12:24:58;;;;;;;1.20;1.10;;;;;;;;;;4982050;28;86845;-59
2023/03/19 12:27:28;;;;;;;2.73;1.63;;;;;;;;;;4981381;28;89255;-58
2023/03/19 12:30:02;;;;;;;1.43;1.13;;;;;;;;;;4981328;28;87617;-58
2023/03/19 12:32:36;;;;;;;1.47;1.23;;;;;;;;;;4981880;28;86902;-58
2023/03/19 12:35:05;;;;;;;1.73;1.53;;;;;;;;;;4982190;28;87013;-58
2023/03/19 12:37:40;;;;;;;2.33;1.70;;;;;;;;;;4981396;28;89119;-58
2023/03/19 12:40:19;;;;;;;2.77;2.13;;;;;;;;;;4981993;28;89206;-58
2023/03/19 12:42:47;;;;;;;2.17;1.60;;;;;;;;;;4982110;28;86949;-58
2023/03/19 12:45:24;;;;;;;3.70;1.67;;;;;;;;;;4974506;28;87121;-59
2023/03/19 12:47:53;;;;;;;2.50;1.67;;;;;;;;;;4981206;28;88945;-59
2023/03/19 12:50:24;;;;;;;1.10;1.10;;;;;;;;;;4981746;28;89935;-59
2023/03/19 12:52:52;;;;;;;3.73;1.87;;;;;;;;;;4981724;28;87029;-58
2023/03/19 12:55:25;;;;;;;2.23;1.63;;;;;;;;;;4981505;28;87043;-58
2023/03/19 12:57:54;;;;;;;2.43;1.43;;;;;;;;;;4981403;28;89169;-58
2023/03/19 13:00:26;;;;;;;1.50;1.40;;;;;;;;;;4981316;28;88906;-58
2023/03/19 13:02:56;;;;;;;1.97;1.37;;;;;;;;;;4984916;28;86796;-58
2023/03/19 13:05:27;;;;;;;1.97;1.30;;;;;;;;;;4985666;28;86315;-58
2023/03/19 13:07:58;;;;;;;1.03;0.97;;;;;;;;;;4984533;28;89184;-59
2023/03/19 13:10:26;;;;;;;2.33;1.90;;;;;;;;;;4985227;28;87758;-58
2023/03/19 13:12:56;;;;;;;1.87;1.63;;;;;;;;;;4984387;28;88028;-58
2023/03/19 13:15:28;;;;;;;2.07;1.03;;;;;;;;;;4984855;28;87091;-58
2023/03/19 13:17:58;;;;;;;2.40;1.73;;;;;;;;;;4984143;28;90019;-59
2023/03/19 13:20:28;;;;;;;2.97;1.83;;;;;;;;;;4984554;28;87808;-58
2023/03/19 13:22:57;;;;;;;1.50;1.23;;;;;;;;;;4985132;28;87138;-58
2023/03/19 13:25:28;;;;;;;3.23;1.20;;;;;;;;;;4985426;28;87042;-58
2023/03/19 13:27:57;;;;;;;2.17;1.40;;;;;;;;;;4984707;28;89319;-58
2023/03/19 13:30:25;;;;;;;1.33;1.23;;;;;;;;;;4984736;28;87981;-58
2023/03/19 13:33:01;;;;;;;2.47;1.60;;;;;;;;;;4984707;28;87046;-58
2023/03/19 13:35:35;;;;;;;3.07;1.60;;;;;;;;;;4984789;28;86997;-58
2023/03/19 13:38:05;;;;;;;1.30;1.20;;;;;;;;;;4983630;28;90002;-58
2023/03/19 13:40:41;;;;;;;1.77;1.30;;;;;;;;;;4984448;28;87429;-58
2023/03/19 13:43:22;;;;;;;1.57;1.23;;;;;;;;;;4984609;28;86896;-58
2023/03/19 13:46:03;;;;;;;2.10;1.40;;;;;;;;;;4984383;28;87091;-58
2023/03/19 13:48:39;;;;;;;1.50;1.23;;;;;;;;;;4984227;28;89423;-58
2023/03/19 13:51:24;;;;;;;3.53;1.43;;;;;;;;;;4984092;28;88667;-58
2023/03/19 13:53:55;;;;;;;1.70;1.10;;;;;;;;;;4983783;28;86956;-58
2023/03/19 13:56:23;;;;;;;1.00;0.90;;;;;;;;;;4984979;28;86249;-58
2023/03/19 13:59:13;;;;;;;1.40;1.20;;;;;;;;;;4984215;28;89153;-58
2023/03/19 14:01:44;;;;;;;3.80;1.03;;;;;;;;;;4981481;28;89029;-58
2023/03/19 14:04:21;;;;;;;2.43;1.30;;;;;;;;;;4983472;28;87980;-58
2023/03/19 14:06:51;;;;;;;2.67;1.00;;;;;;;;;;4984272;28;86989;-58
2023/03/19 14:09:30;;;;;;;4.17;1.30;;;;;;;;;;4983966;28;89198;-58
2023/03/19 14:12:09;;;;;;;1.57;1.07;;;;;;;;;;4984001;28;87724;-58
2023/03/19 14:14:40;;;;;;;1.83;1.40;;;;;;;;;;4976527;28;86933;-58
2023/03/19 14:17:13;;;;;;;2.00;1.27;;;;;;;;;;4983166;28;88226;-58
2023/03/19 14:19:43;;;;;;;2.13;1.33;;;;;;;;;;4984100;28;89149;-58
2023/03/19 14:22:18;;;;;;;2.40;1.57;;;;;;;;;;4984519;28;88846;-58
2023/03/19 14:24:54;;;;;;;1.53;0.90;;;;;;;;;;4984280;28;86803;-58
2023/03/19 14:27:28;;;;;;;3.03;1.30;;;;;;;;;;4983682;28;87006;-58
2023/03/19 14:29:56;;;;;;;1.47;1.10;;;;;;;;;;4982386;28;90123;-59
2023/03/19 14:32:29;;;;;;;1.93;0.87;;;;;;;;;;4980759;28;88616;-59
2023/03/19 14:34:58;;;;;;;1.23;1.13;;;;;;;;;;4983188;28;86941;-58
2023/03/19 14:37:28;;;;;;;1.50;1.30;;;;;;;;;;4983329;28;87063;-58
2023/03/19 14:39:58;;;;;;;1.50;1.30;;;;;;;;;;4982359;28;89146;-58
2023/03/19 14:42:29;;;;;;;3.47;1.37;;;;;;;;;;4982905;28;89111;-58
2023/03/19 14:45:16;;;;;;;1.90;1.43;;;;;;;;;;4982910;28;87119;-58
2023/03/19 14:47:50;;;;;;;3.40;1.23;;;;;;;;;;4983911;28;86193;-59
2023/03/19 14:50:41;;;;;;;1.03;0.97;;;;;;;;;;4982469;28;87054;-58
2023/03/19 14:53:13;;;;;;;0.73;0.73;;;;;;;;;;4982774;28;87808;-58
2023/03/19 14:55:42;;;;;;;0.97;0.87;;;;;;;;;;4982732;28;88332;-58
2023/03/19 14:58:11;;;;;;;3.80;1.37;;;;;;;;;;4982813;28;87058;-58
2023/03/19 15:00:41;;;;;;;0.97;0.87;;;;;;;;;;4982310;28;89122;-59